Time;durP1;ratioP1;P1;durP2;ratioP2;P2;SDS_P1;SDS_P2;PMS_P1;PMS_P2;Temp;Humidity;BMP_temperature;BMP_pressure;BME280_temperature;BME280_humidity;BME280_pressure;Samples;Min_cycle;Max_cycle;Signal;HPM_P1;HPM_P2
2022/09/17 00:01:06;;;;;;;7.50;2.60;;;11.80;99.90;;;;;;4970324;28;20061;-73
2022/09/17 00:03:33;;;;;;;4.63;2.55;;;11.80;99.90;;;;;;4968014;28;20132;-72
2022/09/17 00:06:10;;;;;;;5.87;2.90;;;11.70;99.90;;;;;;4968964;28;20054;-73
2022/09/17 00:08:37;;;;;;;9.05;3.38;;;11.70;99.90;;;;;;4964256;28;20306;-73
2022/09/17 00:11:14;;;;;;;5.43;2.70;;;11.80;99.90;;;;;;4961429;28;20058;-73
2022/09/17 00:13:40;;;;;;;7.47;3.30;;;11.80;99.90;;;;;;4974444;28;20050;-72
2022/09/17 00:16:06;;;;;;;8.02;3.50;;;11.80;99.90;;;;;;4972656;28;20046;-72
2022/09/17 00:18:32;;;;;;;7.70;3.60;;;11.80;99.90;;;;;;4974777;28;20480;-72
2022/09/17 00:20:57;;;;;;;11.80;4.47;;;11.80;99.90;;;;;;4979708;28;20061;-72
2022/09/17 00:23:23;;;;;;;8.43;3.97;;;11.80;99.90;;;;;;4990740;28;20057;-72
2022/09/17 00:25:49;;;;;;;8.55;3.78;;;11.80;99.90;;;;;;4973074;28;20119;-72
2022/09/17 00:28:15;;;;;;;6.82;3.60;;;11.90;99.90;;;;;;4982330;28;20053;-72
2022/09/17 00:30:41;;;;;;;7.38;3.10;;;11.90;99.90;;;;;;4979751;28;20129;-72
2022/09/17 00:33:07;;;;;;;8.15;3.38;;;11.90;99.90;;;;;;4963321;28;20110;-72
2022/09/17 00:35:34;;;;;;;6.20;3.13;;;11.90;99.90;;;;;;4974592;28;20149;-72
2022/09/17 00:38:00;;;;;;;8.70;3.08;;;11.90;99.90;;;;;;4974535;28;20434;-72
2022/09/17 00:40:25;;;;;;;8.50;3.88;;;11.90;99.90;;;;;;4971762;28;20180;-72
2022/09/17 00:42:52;;;;;;;9.35;3.30;;;11.90;99.90;;;;;;4948705;28;20117;-72
2022/09/17 00:45:18;;;;;;;10.15;3.22;;;11.90;99.90;;;;;;4973615;28;20133;-72
2022/09/17 00:47:46;;;;;;;6.57;3.03;;;11.90;99.90;;;;;;4958675;28;20043;-73
2022/09/17 00:50:22;;;;;;;7.65;3.03;;;11.90;99.90;;;;;;4955662;28;20053;-72
2022/09/17 00:53:12;;;;;;;7.28;3.40;;;11.90;99.90;;;;;;4969356;28;20074;-72
2022/09/17 00:55:40;;;;;;;6.07;2.92;;;11.90;99.90;;;;;;4965024;28;20129;-72
2022/09/17 00:58:07;;;;;;;7.53;2.88;;;11.90;99.90;;;;;;4976271;28;20070;-72
2022/09/17 01:00:32;;;;;;;6.85;2.70;;;11.90;99.90;;;;;;4961014;28;20046;-72
2022/09/17 01:02:59;;;;;;;8.95;3.08;;;11.90;99.90;;;;;;4963000;28;20499;-73
2022/09/17 01:05:50;;;;;;;7.32;2.88;;;11.90;99.90;;;;;;4974684;28;20535;-72
2022/09/17 01:08:44;;;;;;;7.03;2.70;;;11.90;99.90;;;;;;4959261;28;20046;-72
2022/09/17 01:11:22;;;;;;;5.70;2.50;;;11.80;99.90;;;;;;4951466;28;20086;-73
2022/09/17 01:14:09;;;;;;;7.20;2.53;;;11.90;99.90;;;;;;4986369;28;20727;-72
2022/09/17 01:16:37;;;;;;;9.60;2.90;;;11.90;99.90;;;;;;4974945;28;20055;-72
2022/09/17 01:19:15;;;;;;;7.00;2.43;;;11.90;99.90;;;;;;4954434;28;20054;-73
2022/09/17 01:22:10;;;;;;;9.13;2.22;;;11.90;99.90;;;;;;4973279;28;20054;-73
2022/09/17 01:24:46;;;;;;;7.72;2.15;;;11.80;99.90;;;;;;4977208;28;20078;-72
2022/09/17 01:27:44;;;;;;;8.43;2.20;;;11.90;99.90;;;;;;4952865;28;20113;-73
2022/09/17 01:30:31;;;;;;;;;;;11.90;99.90;;;;;;4964306;28;20484;-73
2022/09/17 01:33:20;;;;;;;10.48;2.28;;;11.90;99.90;;;;;;4971951;28;19913;-73
2022/09/17 01:35:57;;;;;;;9.35;2.60;;;11.90;99.90;;;;;;4948070;28;20046;-73
2022/09/17 01:38:31;;;;;;;10.00;2.72;;;11.90;99.90;;;;;;4977345;28;20109;-73
2022/09/17 01:41:15;;;;;;;13.40;2.67;;;11.90;99.90;;;;;;4973229;28;20496;-73
2022/09/17 01:44:10;;;;;;;10.63;2.60;;;11.90;99.90;;;;;;4967980;28;20114;-73
2022/09/17 01:46:47;;;;;;;10.70;2.70;;;11.90;99.90;;;;;;4979458;28;20050;-73
2022/09/17 01:49:12;;;;;;;8.70;2.72;;;11.90;99.90;;;;;;4971227;28;20055;-73
2022/09/17 01:51:39;;;;;;;12.43;3.15;;;11.90;99.90;;;;;;4959337;28;20050;-73
2022/09/17 01:54:13;;;;;;;15.50;3.38;;;11.80;99.90;;;;;;4967489;28;20055;-73
2022/09/17 01:56:45;;;;;;;14.77;3.55;;;11.80;99.90;;;;;;4972005;28;20574;-73
2022/09/17 01:59:23;;;;;;;15.60;3.80;;;11.80;99.90;;;;;;4944632;28;20073;-73
2022/09/17 02:01:52;;;;;;;15.00;3.75;;;11.90;99.90;;;;;;4968026;28;20117;-73
2022/09/17 02:04:37;;;;;;;14.85;3.65;;;11.80;99.90;;;;;;4973569;28;20683;-73
2022/09/17 02:07:15;;;;;;;16.90;4.32;;;11.80;99.90;;;;;;4960453;28;20038;-73
2022/09/17 02:09:43;;;;;;;12.25;3.97;;;11.80;99.90;;;;;;4956908;28;20046;-73
2022/09/17 02:12:11;;;;;;;17.58;3.60;;;11.90;99.90;;;;;;4956621;28;20066;-73
2022/09/17 02:14:38;;;;;;;;;;;11.80;99.90;;;;;;4921539;28;20070;-73
2022/09/17 02:17:18;;;;;;;21.75;3.90;;;11.90;99.90;;;;;;4972958;28;19996;-72
2022/09/17 02:20:02;;;;;;;18.02;3.65;;;11.80;99.90;;;;;;4964373;28;21351;-73
2022/09/17 02:22:42;;;;;;;24.85;3.80;;;11.80;99.90;;;;;;4957163;28;20058;-73
2022/09/17 02:25:17;;;;;;;18.52;3.40;;;11.80;99.90;;;;;;4966356;28;20141;-73
2022/09/17 02:28:07;;;;;;;14.13;3.25;;;11.80;99.90;;;;;;4979922;28;20046;-73
2022/09/17 02:30:33;;;;;;;21.05;4.57;;;11.80;99.90;;;;;;4973704;28;20042;-73
2022/09/17 02:33:01;;;;;;;24.45;5.15;;;11.70;99.90;;;;;;4960979;28;20049;-73
2022/09/17 02:35:29;;;;;;;23.98;5.00;;;11.70;99.90;;;;;;4978199;28;20046;-73
2022/09/17 02:37:55;;;;;;;17.17;3.67;;;11.70;99.90;;;;;;4963894;28;20564;-73
2022/09/17 02:40:21;;;;;;;23.85;3.75;;;11.70;99.90;;;;;;4970584;28;20050;-73
2022/09/17 02:43:00;;;;;;;11.98;3.38;;;11.70;99.90;;;;;;4961215;28;20795;-73
2022/09/17 02:45:37;;;;;;;19.95;3.70;;;11.70;99.90;;;;;;4979876;28;20382;-73
2022/09/17 02:48:24;;;;;;;21.50;4.07;;;11.70;99.90;;;;;;4974858;28;20585;-73
2022/09/17 02:50:50;;;;;;;20.58;3.90;;;11.60;99.90;;;;;;4971024;28;20499;-73
2022/09/17 02:53:27;;;;;;;19.85;3.45;;;11.70;99.90;;;;;;4973112;28;20047;-73
2022/09/17 02:56:08;;;;;;;18.17;3.80;;;11.70;99.90;;;;;;4964298;28;20428;-73
2022/09/17 02:58:47;;;;;;;22.88;3.92;;;11.70;99.90;;;;;;4975585;28;20050;-73
2022/09/17 03:01:21;;;;;;;18.55;3.63;;;11.70;99.90;;;;;;4961394;28;20050;-73
2022/09/17 03:03:50;;;;;;;22.17;4.05;;;11.60;99.90;;;;;;4962515;28;20558;-73
2022/09/17 03:06:16;;;;;;;14.00;3.60;;;11.60;99.90;;;;;;4972826;28;20050;-73
2022/09/17 03:08:42;;;;;;;17.38;3.38;;;11.60;99.90;;;;;;4973290;28;20570;-73
2022/09/17 03:11:08;;;;;;;20.60;3.72;;;11.60;99.90;;;;;;4976469;28;20130;-73
2022/09/17 03:13:35;;;;;;;30.27;4.28;;;11.50;99.90;;;;;;4954113;28;20042;-73
2022/09/17 03:16:04;;;;;;;23.10;3.47;;;11.50;99.90;;;;;;4971652;28;20050;-73
2022/09/17 03:18:30;;;;;;;21.42;3.92;;;11.50;99.90;;;;;;4973740;28;20050;-73
2022/09/17 03:20:56;;;;;;;18.25;4.30;;;11.50;99.90;;;;;;4965444;28;20050;-72
2022/09/17 03:23:21;;;;;;;22.45;3.95;;;11.60;99.90;;;;;;4963217;28;20353;-73
2022/09/17 03:25:50;;;;;;;18.42;3.22;;;11.50;99.90;;;;;;4965263;28;20383;-73
2022/09/17 03:28:16;;;;;;;17.75;2.85;;;11.50;99.90;;;;;;4949460;28;20491;-73
2022/09/17 03:30:45;;;;;;;26.02;4.18;;;11.50;99.90;;;;;;4959519;28;20082;-73
2022/09/17 03:33:11;;;;;;;18.35;3.25;;;11.50;99.90;;;;;;4971671;28;20376;-73
2022/09/17 03:35:37;;;;;;;24.65;3.25;;;11.50;99.90;;;;;;4971115;28;20065;-73
2022/09/17 03:38:03;;;;;;;16.05;3.20;;;11.50;99.90;;;;;;4967144;28;20461;-73
2022/09/17 03:40:29;;;;;;;21.13;3.25;;;11.50;99.90;;;;;;4979577;28;20058;-73
2022/09/17 03:42:55;;;;;;;21.33;4.10;;;11.50;99.90;;;;;;4968475;28;20141;-74
2022/09/17 03:45:21;;;;;;;19.77;3.60;;;11.50;99.90;;;;;;4975564;28;20503;-73
2022/09/17 03:47:46;;;;;;;23.50;4.88;;;11.50;99.90;;;;;;4965530;28;20057;-73
2022/09/17 03:50:13;;;;;;;20.60;3.38;;;11.50;99.90;;;;;;4971874;28;20053;-73
2022/09/17 03:52:39;;;;;;;21.35;4.03;;;11.50;99.90;;;;;;4973124;28;20054;-73
2022/09/17 03:55:05;;;;;;;13.60;3.30;;;11.60;99.90;;;;;;4970520;28;20117;-73
2022/09/17 03:57:31;;;;;;;20.38;3.97;;;11.40;99.90;;;;;;4967973;28;20051;-74
2022/09/17 03:59:58;;;;;;;23.33;3.75;;;11.50;99.90;;;;;;4972941;28;20137;-73
2022/09/17 04:02:24;;;;;;;22.15;3.30;;;11.50;99.90;;;;;;4970229;28;20050;-73
2022/09/17 04:04:51;;;;;;;18.55;3.60;;;11.50;99.90;;;;;;4975142;28;20144;-73
2022/09/17 04:07:17;;;;;;;26.45;4.30;;;11.50;99.90;;;;;;4972980;28;20126;-73
2022/09/17 04:09:43;;;;;;;20.48;3.28;;;11.40;99.80;;;;;;4973231;28;20081;-73
2022/09/17 04:12:09;;;;;;;16.58;3.22;;;11.40;99.90;;;;;;4966429;28;20442;-73
2022/09/17 04:14:35;;;;;;;18.02;3.20;;;11.40;99.80;;;;;;4954275;28;20088;-73
2022/09/17 04:17:01;;;;;;;18.20;3.20;;;11.50;99.70;;;;;;4972972;28;20105;-74
2022/09/17 04:19:26;;;;;;;16.25;3.13;;;11.40;99.60;;;;;;4961368;28;20089;-73
2022/09/17 04:21:52;;;;;;;18.80;3.50;;;11.40;99.50;;;;;;4967494;28;20065;-72
2022/09/17 04:24:19;;;;;;;22.40;4.53;;;11.40;99.50;;;;;;4970898;28;20073;-73
2022/09/17 04:26:45;;;;;;;20.00;3.80;;;11.40;99.60;;;;;;4975565;28;20077;-73
2022/09/17 04:29:12;;;;;;;15.52;3.30;;;11.40;99.50;;;;;;4932480;28;20043;-72
2022/09/17 04:31:37;;;;;;;18.60;3.38;;;11.40;99.50;;;;;;4960196;28;20038;-73
2022/09/17 04:34:03;;;;;;;14.93;3.40;;;11.40;99.50;;;;;;4972460;28;20116;-73
2022/09/17 04:36:29;;;;;;;21.92;3.42;;;11.40;99.50;;;;;;4947580;28;20141;-73
2022/09/17 04:38:54;;;;;;;16.60;2.78;;;11.40;99.40;;;;;;4974814;28;20133;-73
2022/09/17 04:41:20;;;;;;;14.10;3.08;;;11.40;99.30;;;;;;4941360;28;20054;-73
2022/09/17 04:43:46;;;;;;;15.85;2.53;;;11.40;99.00;;;;;;4970443;28;20129;-73
2022/09/17 04:46:13;;;;;;;17.30;2.78;;;11.40;99.00;;;;;;4967179;28;20050;-73
2022/09/17 04:48:38;;;;;;;20.45;3.30;;;11.40;99.10;;;;;;4972122;28;20042;-73
2022/09/17 04:51:05;;;;;;;14.07;2.83;;;11.40;98.60;;;;;;4959714;28;20053;-73
2022/09/17 04:53:31;;;;;;;18.42;3.20;;;11.30;98.80;;;;;;4957037;28;20047;-73
2022/09/17 04:55:57;;;;;;;20.60;3.08;;;11.30;98.50;;;;;;4968136;28;20062;-73
2022/09/17 04:58:23;;;;;;;16.10;3.10;;;11.30;98.60;;;;;;4970870;28;20050;-73
2022/09/17 05:00:51;;;;;;;15.55;2.38;;;11.20;98.50;;;;;;4966621;28;20057;-73
2022/09/17 05:03:16;;;;;;;17.10;3.03;;;11.20;98.50;;;;;;4972471;28;20061;-73
2022/09/17 05:05:42;;;;;;;20.20;3.05;;;11.20;98.50;;;;;;4972406;28;20050;-73
2022/09/17 05:08:08;;;;;;;21.63;4.28;;;11.20;98.50;;;;;;4968383;28;20038;-73
2022/09/17 05:10:35;;;;;;;15.43;2.47;;;11.10;98.50;;;;;;4962395;28;20551;-73
2022/09/17 05:13:00;;;;;;;20.08;4.70;;;11.20;98.50;;;;;;4965191;28;20047;-73
2022/09/17 05:15:26;;;;;;;14.18;3.05;;;11.10;98.50;;;;;;4948069;28;20141;-74
2022/09/17 05:17:52;;;;;;;18.98;2.97;;;11.20;98.20;;;;;;4973633;28;20487;-73
2022/09/17 05:20:18;;;;;;;14.48;2.70;;;11.20;98.40;;;;;;4978942;28;20042;-74
2022/09/17 05:22:45;;;;;;;16.95;3.33;;;11.10;98.00;;;;;;4979906;28;20371;-73
2022/09/17 05:25:12;;;;;;;19.17;3.20;;;11.20;98.30;;;;;;4956989;28;20050;-73
2022/09/17 05:27:38;;;;;;;17.98;4.00;;;11.20;98.20;;;;;;4959686;28;20395;-73
2022/09/17 05:30:04;;;;;;;20.17;3.40;;;11.10;98.20;;;;;;4989086;28;20146;-73
2022/09/17 05:32:30;;;;;;;15.82;3.13;;;11.10;98.20;;;;;;4971248;28;20052;-73
2022/09/17 05:34:56;;;;;;;12.98;3.20;;;11.10;98.30;;;;;;4937443;28;20046;-73
2022/09/17 05:37:21;;;;;;;15.35;3.38;;;11.20;98.10;;;;;;4927607;28;20218;-73
2022/09/17 05:39:47;;;;;;;20.85;3.63;;;11.20;98.10;;;;;;4967771;28;20050;-73
2022/09/17 05:42:13;;;;;;;11.18;2.70;;;11.10;98.00;;;;;;4967570;28;20380;-73
2022/09/17 05:44:38;;;;;;;18.13;3.70;;;11.20;98.00;;;;;;4966145;28;20051;-73
2022/09/17 05:47:04;;;;;;;15.15;3.45;;;11.10;97.90;;;;;;4969042;28;20238;-73
2022/09/17 05:49:30;;;;;;;17.30;2.92;;;11.10;97.90;;;;;;4967266;28;20050;-73
2022/09/17 05:51:57;;;;;;;17.45;3.25;;;11.10;98.10;;;;;;4970830;28;20380;-73
2022/09/17 05:54:22;;;;;;;16.25;3.08;;;11.10;98.10;;;;;;4974389;28;20050;-73
2022/09/17 05:56:52;;;;;;;17.58;3.47;;;11.20;98.40;;;;;;4962841;28;20057;-73
2022/09/17 05:59:17;;;;;;;13.30;2.92;;;11.10;98.50;;;;;;4971569;28;20070;-73
2022/09/17 06:01:45;;;;;;;21.63;3.38;;;11.10;98.60;;;;;;4956964;28;20051;-74
2022/09/17 06:04:12;;;;;;;15.38;3.10;;;11.10;99.00;;;;;;4940075;28;20276;-72
2022/09/17 06:06:40;;;;;;;18.25;2.92;;;11.10;99.20;;;;;;4975044;28;20055;-73
2022/09/17 06:09:07;;;;;;;18.42;3.65;;;11.10;99.10;;;;;;4964392;28;20050;-72
2022/09/17 06:11:33;;;;;;;19.23;3.75;;;11.10;98.70;;;;;;4952737;28;20063;-73
2022/09/17 06:13:59;;;;;;;17.38;2.72;;;11.10;98.50;;;;;;4938107;28;20050;-73
2022/09/17 06:16:25;;;;;;;18.70;3.28;;;11.10;98.20;;;;;;4944175;28;20098;-73
2022/09/17 06:18:52;;;;;;;16.05;2.80;;;11.10;98.40;;;;;;4966165;28;20047;-73
2022/09/17 06:21:22;;;;;;;21.13;3.10;;;11.20;98.30;;;;;;4936158;29;20046;-73
2022/09/17 06:23:49;;;;;;;17.75;2.53;;;11.20;98.00;;;;;;4959078;28;20042;-73
2022/09/17 06:26:14;;;;;;;14.00;2.53;;;11.10;97.90;;;;;;4942311;28;20133;-73
2022/09/17 06:28:40;;;;;;;16.10;3.30;;;11.10;97.90;;;;;;4956824;28;20127;-73
2022/09/17 06:31:07;;;;;;;14.82;3.28;;;11.20;97.90;;;;;;4951417;28;20039;-73
2022/09/17 06:33:32;;;;;;;16.60;2.83;;;11.20;97.90;;;;;;4954461;28;20082;-73
2022/09/17 06:35:59;;;;;;;16.50;2.95;;;11.20;97.80;;;;;;4947029;28;20042;-73
2022/09/17 06:38:26;;;;;;;14.23;2.85;;;11.20;97.90;;;;;;4938270;29;20067;-73
2022/09/17 06:40:52;;;;;;;14.27;2.83;;;11.30;97.50;;;;;;4955538;28;20055;-73
2022/09/17 06:43:18;;;;;;;17.50;2.78;;;11.30;97.40;;;;;;4932255;28;20474;-74
2022/09/17 06:45:53;;;;;;;16.38;3.42;;;11.30;97.10;;;;;;4953579;28;20055;-73
2022/09/17 06:48:19;;;;;;;19.48;2.75;;;11.30;96.90;;;;;;4964933;28;20043;-73
2022/09/17 06:50:45;;;;;;;18.38;3.20;;;11.40;97.00;;;;;;4952318;28;20100;-74
2022/09/17 06:53:10;;;;;;;14.23;2.40;;;11.40;96.90;;;;;;4958674;28;20051;-73
2022/09/17 06:55:36;;;;;;;24.38;3.25;;;11.40;96.70;;;;;;4957661;28;20077;-73
2022/09/17 06:58:02;;;;;;;11.77;2.33;;;11.40;96.40;;;;;;4958244;28;20074;-73
2022/09/17 07:00:28;;;;;;;21.58;3.30;;;11.40;96.40;;;;;;4966042;28;20484;-73
2022/09/17 07:02:58;;;;;;;19.02;2.97;;;11.40;96.40;;;;;;4953798;28;20062;-73
2022/09/17 07:05:24;;;;;;;17.42;2.50;;;11.40;96.20;;;;;;4950343;28;20680;-73
2022/09/17 07:07:50;;;;;;;17.25;3.33;;;11.50;96.10;;;;;;4954946;28;20050;-73
2022/09/17 07:10:18;;;;;;;18.67;2.78;;;11.50;95.90;;;;;;4968473;28;20057;-73
2022/09/17 07:12:43;;;;;;;15.80;2.88;;;11.60;95.80;;;;;;4974282;28;20047;-73
2022/09/17 07:15:14;;;;;;;13.02;2.92;;;11.70;95.40;;;;;;4967056;28;20047;-73
2022/09/17 07:17:41;;;;;;;16.48;3.05;;;11.70;95.00;;;;;;4971620;28;20057;-73
2022/09/17 07:20:08;;;;;;;12.68;2.72;;;11.70;95.20;;;;;;4964274;28;20057;-74
2022/09/17 07:22:34;;;;;;;14.35;2.60;;;11.70;95.50;;;;;;4975278;28;20153;-73
2022/09/17 07:25:00;;;;;;;24.15;2.78;;;11.80;95.10;;;;;;4978451;28;20047;-73
2022/09/17 07:27:29;;;;;;;16.25;2.70;;;11.80;94.70;;;;;;4973430;28;20082;-73
2022/09/17 07:29:55;;;;;;;14.48;2.83;;;11.80;94.70;;;;;;4947517;28;20691;-73
2022/09/17 07:32:21;;;;;;;17.58;2.40;;;11.60;94.70;;;;;;4958890;28;20054;-73
2022/09/17 07:34:50;;;;;;;15.05;3.78;;;11.70;94.70;;;;;;4964051;28;20113;-73
2022/09/17 07:37:16;;;;;;;17.42;2.83;;;11.70;94.90;;;;;;4957432;28;20049;-73
2022/09/17 07:39:42;;;;;;;13.45;2.67;;;11.60;94.80;;;;;;4963330;28;20137;-73
2022/09/17 07:42:09;;;;;;;13.90;3.25;;;11.60;94.80;;;;;;4953942;28;20440;-73
2022/09/17 07:44:35;;;;;;;22.05;2.97;;;11.50;94.70;;;;;;4974240;28;20054;-73
2022/09/17 07:47:01;;;;;;;16.85;3.10;;;11.50;94.90;;;;;;4970437;28;20042;-73
2022/09/17 07:49:27;;;;;;;15.00;2.45;;;11.50;94.90;;;;;;4977430;28;20051;-73
2022/09/17 07:51:53;;;;;;;16.27;2.83;;;11.60;94.50;;;;;;4947049;28;20100;-73
2022/09/17 07:54:19;;;;;;;14.23;2.50;;;11.70;94.30;;;;;;4960891;28;20058;-73
2022/09/17 07:56:45;;;;;;;20.42;2.95;;;11.70;94.10;;;;;;4968925;28;20050;-73
2022/09/17 07:59:12;;;;;;;15.75;2.78;;;11.70;94.10;;;;;;4977668;28;20117;-73
2022/09/17 08:01:38;;;;;;;14.45;2.85;;;11.70;93.50;;;;;;4973575;28;20062;-73
2022/09/17 08:04:05;;;;;;;22.58;3.00;;;11.80;93.60;;;;;;4970770;28;20051;-73
2022/09/17 08:06:34;;;;;;;21.75;2.72;;;11.90;93.50;;;;;;4969280;28;20050;-73
2022/09/17 08:09:00;;;;;;;14.18;2.53;;;11.90;93.40;;;;;;4975886;28;20046;-74
2022/09/17 08:11:28;;;;;;;16.38;3.53;;;12.00;92.20;;;;;;4969666;28;20073;-74
2022/09/17 08:13:54;;;;;;;16.45;2.40;;;12.00;91.80;;;;;;4972822;28;20069;-73
2022/09/17 08:16:20;;;;;;;8.32;2.08;;;12.10;91.90;;;;;;4956570;28;20085;-74
2022/09/17 08:18:47;;;;;;;14.75;2.28;;;12.20;91.70;;;;;;4973489;28;20061;-73
2022/09/17 08:21:14;;;;;;;16.77;2.55;;;12.30;91.30;;;;;;4952373;28;20442;-73
2022/09/17 08:23:41;;;;;;;14.97;2.93;;;12.30;91.70;;;;;;4967323;28;20658;-73
2022/09/17 08:26:10;;;;;;;15.10;2.50;;;12.30;90.60;;;;;;4979989;28;20436;-73
2022/09/17 08:28:35;;;;;;;18.13;2.53;;;12.40;90.90;;;;;;4955010;28;20054;-73
2022/09/17 08:31:07;;;;;;;19.10;2.60;;;12.40;91.40;;;;;;4973399;28;20043;-73
2022/09/17 08:33:36;;;;;;;14.15;2.45;;;12.40;90.70;;;;;;4961239;28;20109;-73
2022/09/17 08:36:02;;;;;;;13.85;2.45;;;12.50;90.90;;;;;;4961613;28;20046;-73
2022/09/17 08:38:29;;;;;;;12.90;2.20;;;12.50;91.10;;;;;;4970376;28;20104;-73
2022/09/17 08:41:10;;;;;;;15.68;3.30;;;12.60;91.00;;;;;;4959773;28;20057;-73
2022/09/17 08:43:57;;;;;;;13.27;2.47;;;12.60;90.00;;;;;;4980659;28;20126;-73
2022/09/17 08:46:24;;;;;;;18.30;2.50;;;12.60;90.30;;;;;;4976598;28;20057;-73
2022/09/17 08:49:00;;;;;;;18.70;2.83;;;12.70;89.00;;;;;;4942417;28;20069;-73
2022/09/17 08:51:29;;;;;;;13.32;2.00;;;12.70;89.70;;;;;;4982450;28;20495;-73
2022/09/17 08:54:14;;;;;;;;;;;12.80;88.50;;;;;;4975467;28;20050;-73
2022/09/17 08:56:41;;;;;;;16.10;2.60;;;12.80;86.70;;;;;;4952788;28;19992;-73
2022/09/17 08:59:10;;;;;;;11.55;2.40;;;12.80;86.50;;;;;;4974552;28;20078;-73
2022/09/17 09:01:44;;;;;;;17.88;2.70;;;12.80;87.10;;;;;;4975807;28;20057;-73
2022/09/17 09:04:34;;;;;;;18.30;3.28;;;12.90;85.70;;;;;;4975348;28;20038;-73
2022/09/17 09:07:05;;;;;;;15.75;2.22;;;13.00;85.70;;;;;;4986027;28;20046;-73
2022/09/17 09:09:36;;;;;;;15.90;2.53;;;13.10;85.70;;;;;;4967132;28;20046;-73
2022/09/17 09:12:26;;;;;;;14.85;2.97;;;13.20;84.90;;;;;;4976083;28;20065;-73
2022/09/17 09:14:56;;;;;;;17.48;2.67;;;13.20;84.10;;;;;;4962237;28;20113;-73
2022/09/17 09:17:22;;;;;;;25.05;2.67;;;13.30;84.20;;;;;;4973904;28;20141;-73
2022/09/17 09:19:55;;;;;;;18.85;2.60;;;13.30;84.30;;;;;;4964950;28;20065;-74
2022/09/17 09:22:34;;;;;;;14.38;2.88;;;13.40;83.30;;;;;;4984385;28;20046;-74
2022/09/17 09:25:22;;;;;;;15.35;3.05;;;13.30;83.40;;;;;;4969223;28;20101;-74
2022/09/17 09:28:03;;;;;;;13.38;2.35;;;13.50;83.10;;;;;;4980887;28;20054;-73
2022/09/17 09:30:35;;;;;;;16.77;2.72;;;13.60;82.50;;;;;;4967328;28;20042;-73
2022/09/17 09:33:07;;;;;;;20.90;3.63;;;13.60;81.20;;;;;;4959057;28;20045;-74
2022/09/17 09:35:33;;;;;;;23.45;3.38;;;13.70;82.00;;;;;;4967505;28;20157;-73
2022/09/17 09:38:09;;;;;;;17.58;2.38;;;13.70;82.90;;;;;;4975730;28;20128;-73
2022/09/17 09:40:45;;;;;;;21.85;3.67;;;13.60;82.40;;;;;;4977560;28;20061;-73
2022/09/17 09:43:46;;;;;;;17.15;3.10;;;13.60;81.90;;;;;;4978297;28;20050;-73
2022/09/17 09:46:35;;;;;;;13.80;2.75;;;13.60;81.90;;;;;;4965515;28;20046;-74
2022/09/17 09:49:10;;;;;;;16.42;2.75;;;13.60;81.30;;;;;;4975124;28;20039;-73
2022/09/17 09:52:13;;;;;;;20.27;2.40;;;13.50;80.30;;;;;;4975802;28;20380;-73
2022/09/17 09:54:53;;;;;;;13.75;2.70;;;13.70;80.20;;;;;;4983632;28;20042;-73
2022/09/17 09:57:48;;;;;;;16.65;3.28;;;13.80;80.30;;;;;;4973675;28;20431;-73
2022/09/17 10:00:30;;;;;;;13.38;2.72;;;14.00;78.90;;;;;;4991775;28;20073;-73
2022/09/17 10:03:00;;;;;;;14.05;2.58;;;13.80;79.60;;;;;;4975455;28;20746;-73
2022/09/17 10:05:28;;;;;;;13.07;2.72;;;13.80;80.50;;;;;;4969591;28;20133;-73
2022/09/17 10:07:53;;;;;;;16.98;2.88;;;13.80;78.10;;;;;;4965680;28;20054;-73
2022/09/17 10:10:19;;;;;;;13.82;2.47;;;13.70;77.80;;;;;;4982803;28;20038;-73
2022/09/17 10:12:46;;;;;;;15.13;2.67;;;13.70;78.70;;;;;;4962552;28;20056;-73
2022/09/17 10:15:32;;;;;;;14.27;2.85;;;13.70;78.30;;;;;;4979898;28;20055;-72
2022/09/17 10:18:15;;;;;;;17.88;2.85;;;13.80;78.50;;;;;;4961517;28;20488;-73
2022/09/17 10:20:53;;;;;;;17.27;2.88;;;13.90;75.50;;;;;;4952081;28;20047;-73
2022/09/17 10:23:20;;;;;;;13.50;2.33;;;13.90;74.70;;;;;;4981520;28;20053;-73
2022/09/17 10:25:47;;;;;;;15.98;2.58;;;14.10;74.40;;;;;;4962551;28;20058;-73
2022/09/17 10:28:31;;;;;;;13.70;2.35;;;14.40;74.30;;;;;;4972405;28;20057;-73
2022/09/17 10:30:59;;;;;;;18.92;3.33;;;14.50;72.80;;;;;;4972411;28;20042;-73
2022/09/17 10:33:27;;;;;;;11.95;2.42;;;14.80;73.70;;;;;;4970525;28;20380;-73
2022/09/17 10:36:38;;;;;;;16.83;2.90;;;14.80;72.30;;;;;;4972616;28;20078;-73
2022/09/17 10:39:28;;;;;;;19.80;2.45;;;15.00;71.20;;;;;;4956983;28;20047;-73
2022/09/17 10:41:57;;;;;;;13.55;2.88;;;14.90;71.60;;;;;;4971964;28;20062;-62
2022/09/17 10:44:24;;;;;;;11.00;2.15;;;14.80;72.70;;;;;;4954736;28;20381;-63
2022/09/17 10:46:51;;;;;;;12.43;2.33;;;14.80;71.40;;;;;;4967138;28;20054;-62
2022/09/17 10:49:41;;;;;;;17.80;2.30;;;14.80;69.70;;;;;;4962122;28;20754;-63
2022/09/17 10:52:10;;;;;;;11.82;2.08;;;14.70;69.40;;;;;;4940735;28;20050;-63
2022/09/17 10:55:04;;;;;;;15.75;2.38;;;15.00;69.70;;;;;;4969024;28;20046;-63
2022/09/17 10:57:29;;;;;;;13.30;2.42;;;14.80;68.90;;;;;;4977669;28;20046;-62
2022/09/17 11:00:01;;;;;;;14.10;2.60;;;14.70;70.60;;;;;;4969856;28;20420;-62
2022/09/17 11:02:49;;;;;;;11.57;2.33;;;14.70;71.30;;;;;;4958223;28;20093;-63
2022/09/17 11:05:37;;;;;;;12.50;2.40;;;14.60;73.00;;;;;;4973028;28;20042;-63
2022/09/17 11:08:06;;;;;;;14.70;2.42;;;14.80;72.60;;;;;;4960857;28;20491;-63
2022/09/17 11:10:53;;;;;;;11.98;2.03;;;14.90;70.00;;;;;;4946140;28;20066;-63
2022/09/17 11:13:31;;;;;;;12.88;2.13;;;15.10;69.40;;;;;;4958874;28;20162;-62
2022/09/17 11:16:22;;;;;;;14.65;2.17;;;15.00;68.80;;;;;;4972320;28;20073;-61
2022/09/17 11:19:09;;;;;;;17.15;2.53;;;14.90;68.80;;;;;;4956195;28;20165;-62
2022/09/17 11:22:16;;;;;;;11.13;2.45;;;15.20;68.70;;;;;;4970768;28;20054;-63
2022/09/17 11:24:54;;;;;;;10.65;2.33;;;15.50;65.10;;;;;;4929056;28;20212;-62
2022/09/17 11:27:46;;;;;;;13.30;2.13;;;15.60;62.30;;;;;;4966034;28;20046;-62
2022/09/17 11:30:20;;;;;;;13.10;2.13;;;15.40;61.60;;;;;;4954654;28;20047;-62
2022/09/17 11:32:59;;;;;;;9.70;2.00;;;15.20;61.90;;;;;;4944455;28;20046;-63
2022/09/17 11:35:32;;;;;;;9.80;2.05;;;15.40;62.00;;;;;;4954004;28;20053;-62
2022/09/17 11:38:18;;;;;;;13.57;2.25;;;15.20;61.90;;;;;;4931536;28;20047;-62
2022/09/17 11:41:15;;;;;;;8.45;1.80;;;15.10;63.50;;;;;;4975898;28;20483;-62
2022/09/17 11:43:49;;;;;;;10.13;2.40;;;15.20;61.80;;;;;;4978275;28;20096;-62
2022/09/17 11:46:40;;;;;;;13.70;1.80;;;15.40;61.80;;;;;;4945252;28;20112;-62
2022/09/17 11:49:24;;;;;;;9.73;1.30;;;15.30;62.00;;;;;;4965236;28;20050;-62
2022/09/17 11:51:54;;;;;;;5.88;1.38;;;14.80;68.50;;;;;;4963975;28;20050;-62
2022/09/17 11:54:36;;;;;;;6.80;1.27;;;14.30;71.70;;;;;;4957869;28;20122;-62
2022/09/17 11:57:17;;;;;;;8.90;1.33;;;13.90;75.00;;;;;;4948612;28;20667;-62
2022/09/17 11:59:51;;;;;;;11.45;3.08;;;13.70;78.90;;;;;;4949099;28;20801;-66
2022/09/17 12:02:30;;;;;;;14.85;2.80;;;13.80;83.70;;;;;;4949541;28;20112;-64
2022/09/17 12:05:21;;;;;;;11.20;1.95;;;13.70;83.10;;;;;;4960884;28;20050;-62
2022/09/17 12:08:09;;;;;;;11.07;1.52;;;13.20;84.20;;;;;;4953241;28;20097;-62
2022/09/17 12:10:37;;;;;;;8.02;1.40;;;12.60;88.40;;;;;;4972315;28;20086;-62
2022/09/17 12:13:24;;;;;;;5.18;1.42;;;12.10;89.50;;;;;;4971503;28;20622;-62
2022/09/17 12:16:19;;;;;;;6.10;1.85;;;12.00;90.90;;;;;;4971907;28;20130;-62
2022/09/17 12:18:54;;;;;;;6.85;1.50;;;11.90;91.90;;;;;;4957071;28;20052;-62
2022/09/17 12:21:32;;;;;;;8.23;1.38;;;11.80;93.00;;;;;;4942523;28;20755;-62
2022/09/17 12:24:22;;;;;;;8.40;1.75;;;11.60;93.60;;;;;;4938555;28;20084;-62
2022/09/17 12:27:09;;;;;;;8.35;1.50;;;11.60;93.30;;;;;;4963508;28;20058;-62
2022/09/17 12:29:59;;;;;;;10.38;2.10;;;11.60;93.90;;;;;;4942272;28;20049;-62
2022/09/17 12:32:27;;;;;;;8.30;1.45;;;11.70;93.60;;;;;;4957942;28;20061;-61
2022/09/17 12:35:13;;;;;;;10.15;1.63;;;11.70;93.30;;;;;;4953725;28;20050;-62
2022/09/17 12:37:38;;;;;;;6.35;1.45;;;11.70;93.40;;;;;;4952171;28;20051;-62
2022/09/17 12:40:32;;;;;;;7.55;1.50;;;11.60;93.60;;;;;;4963059;28;20109;-61
2022/09/17 12:43:01;;;;;;;6.18;1.52;;;11.60;93.60;;;;;;4968391;28;20047;-62
2022/09/17 12:45:39;;;;;;;7.68;1.42;;;11.50;93.40;;;;;;4967541;28;20054;-62
2022/09/17 12:48:11;;;;;;;6.70;1.58;;;11.60;93.60;;;;;;4967671;28;20066;-62
2022/09/17 12:51:11;;;;;;;9.25;1.92;;;11.60;93.90;;;;;;4980330;28;20558;-62
2022/09/17 12:53:54;;;;;;;6.53;1.60;;;11.50;93.70;;;;;;4985715;28;20046;-62
2022/09/17 12:56:50;;;;;;;7.55;1.40;;;11.40;94.50;;;;;;4945980;28;20047;-62
2022/09/17 12:59:18;;;;;;;10.07;1.60;;;11.40;94.80;;;;;;4958198;28;20133;-63
2022/09/17 13:01:51;;;;;;;9.45;1.60;;;11.40;94.90;;;;;;4964143;28;20051;-62
2022/09/17 13:04:45;;;;;;;10.77;2.22;;;11.30;95.30;;;;;;4968278;28;20110;-62
2022/09/17 13:07:29;;;;;;;7.90;1.38;;;11.30;95.60;;;;;;4967424;28;20050;-62